createdAt,value
2023-02-19T00:01:53.036Z,-23497.03
2023-02-19T00:03:57.652Z,-23499.06
2023-02-19T00:06:02.716Z,-23503.50
2023-02-19T00:08:05.784Z,-23503.69
2023-02-19T00:10:09.134Z,-23500.34
2023-02-19T00:12:11.734Z,-23499.56
2023-02-19T00:14:18.751Z,-23501.63
2023-02-19T00:16:23.892Z,-23497.19
2023-02-19T00:18:26.487Z,-23498.75
2023-02-19T00:20:29.130Z,-23499.41
2023-02-19T00:22:31.726Z,-23502.72
2023-02-19T00:24:34.407Z,-23498.28
2023-02-19T00:26:39.886Z,-23500.34
2023-02-19T00:28:42.581Z,-23499.88
2023-02-19T00:30:46.754Z,-23498.13
2023-02-19T00:32:51.556Z,-23497.81
2023-02-19T00:34:54.215Z,-23499.72
2023-02-19T00:36:56.871Z,-23503.69
2023-02-19T00:38:59.565Z,-23500.97
2023-02-19T00:41:18.860Z,-23501.78
2023-02-19T00:43:21.743Z,-23503.34
2023-02-19T00:45:24.435Z,-23504.94
2023-02-19T00:47:28.370Z,-23500.03
2023-02-19T00:49:30.967Z,-23505.91
2023-02-19T00:51:35.490Z,-23502.56
2023-02-19T00:53:38.125Z,-23500.81
2023-02-19T00:55:40.721Z,-23505.91
2023-02-19T00:57:43.425Z,-23499.88
2023-02-19T00:59:46.043Z,-23496.72
2023-02-19T01:01:49.517Z,-23498.75
2023-02-19T01:03:53.637Z,-23495.59
2023-02-19T01:05:56.476Z,-23498.44
2023-02-19T01:07:59.739Z,-23493.84
2023-02-19T01:10:02.346Z,-23496.22
2023-02-19T01:12:05.280Z,-23497.34
2023-02-19T01:14:07.901Z,-23493.84
2023-02-19T01:16:14.584Z,-23493.84
2023-02-19T01:18:17.044Z,-23496.72
2023-02-19T01:20:21.055Z,-23494.16
2023-02-19T01:22:23.623Z,-23497.34
2023-02-19T01:24:26.247Z,-23493.22
2023-02-19T01:26:31.098Z,-23493.84
2023-02-19T01:28:33.874Z,-23494.16
2023-02-19T01:30:37.595Z,-23490.69
2023-02-19T01:32:41.124Z,-23492.59
2023-02-19T01:34:43.766Z,-23492.25
2023-02-19T01:36:47.809Z,-23493.22
2023-02-19T01:38:50.734Z,-23495.13
2023-02-19T01:40:57.667Z,-23492.25
2023-02-19T01:43:00.293Z,-23490.38
2023-02-19T01:45:26.253Z,-23484.97
2023-02-19T01:47:28.919Z,-23485.28
2023-02-19T01:49:34.103Z,-23487.50
2023-02-19T01:51:39.456Z,-23484.81
2023-02-19T01:53:46.833Z,-23484.97
2023-02-19T01:55:54.266Z,-23484.97
2023-02-19T01:57:57.341Z,-23485.75
2023-02-19T02:00:04.497Z,-23481.81
2023-02-19T02:02:07.922Z,-23484.34
2023-02-19T02:04:13.038Z,-23484.97
2023-02-19T02:06:22.341Z,-23483.38
2023-02-19T02:08:44.148Z,-23485.59
2023-02-19T02:10:48.380Z,-23480.69
2023-02-19T02:12:53.372Z,-23481.47
2023-02-19T02:14:55.991Z,-23485.28
2023-02-19T02:17:09.376Z,-23479.25
2023-02-19T02:19:30.953Z,-23480.22
2023-02-19T02:21:57.345Z,-23481.47
2023-02-19T02:24:17.606Z,-23479.59
2023-02-19T02:26:36.558Z,-23479.25
2023-02-19T02:29:13.573Z,-23477.69
2023-02-19T02:31:20.651Z,-23478.78
2023-02-19T02:33:32.954Z,-23471.03
2023-02-19T02:35:41.379Z,-23472.59
2023-02-19T02:37:46.036Z,-23472.91
2023-02-19T02:39:49.749Z,-23473.41
2023-02-19T02:42:18.088Z,-23470.38
2023-02-19T02:44:20.688Z,-23466.91
2023-02-19T02:46:32.914Z,-23469.59
2023-02-19T02:48:39.822Z,-23473.88
2023-02-19T02:50:46.952Z,-23468.81
2023-02-19T02:53:10.030Z,-23470.06
2023-02-19T02:55:13.103Z,-23469.91
2023-02-19T02:57:17.788Z,-23471.34
2023-02-19T02:59:24.656Z,-23472.44
2023-02-19T03:01:50.654Z,-23471.03
2023-02-19T03:03:58.796Z,-23473.56
2023-02-19T03:06:04.692Z,-23473.88
2023-02-19T03:08:10.860Z,-23470.38
2023-02-19T03:10:18.074Z,-23474.03
2023-02-19T03:12:39.387Z,-23475.16
2023-02-19T03:14:59.732Z,-23469.91
2023-02-19T03:17:27.593Z,-23469.75
2023-02-19T03:19:32.598Z,-23463.09
2023-02-19T03:21:38.304Z,-23457.69
2023-02-19T03:23:58.638Z,-23456.28
2023-02-19T03:26:04.292Z,-23454.22
2023-02-19T03:28:11.064Z,-23449.94
2023-02-19T03:30:16.522Z,-23450.72
2023-02-19T03:32:25.017Z,-23448.03
2023-02-19T03:34:32.193Z,-23448.97
2023-02-19T03:36:40.745Z,-23444.22
2023-02-19T03:38:49.105Z,-23443.41
2023-02-19T03:40:57.790Z,-23447.72
2023-02-19T03:43:09.061Z,-23445.31
2023-02-19T03:45:25.776Z,-23447.53
2023-02-19T03:47:32.535Z,-23448.19
2023-02-19T03:49:40.683Z,-23443.09
2023-02-19T03:51:46.882Z,-23442.16
2023-02-19T03:53:59.455Z,-23440.88
2023-02-19T03:56:10.113Z,-23439.28
2023-02-19T03:58:18.197Z,-23439.59
2023-02-19T04:00:28.370Z,-23439.78
2023-02-19T04:02:36.614Z,-23441.84
2023-02-19T04:04:44.820Z,-23439.94
2023-02-19T04:06:55.241Z,-23443.91
2023-02-19T04:09:01.201Z,-23442.78
2023-02-19T04:11:05.100Z,-23445.00
2023-02-19T04:13:12.694Z,-23447.53
2023-02-19T04:15:20.627Z,-23445.31
2023-02-19T04:17:27.725Z,-23447.22
2023-02-19T04:19:35.718Z,-23444.22
2023-02-19T04:21:40.626Z,-23445.66
2023-02-19T04:23:45.650Z,-23442.00
2023-02-19T04:25:51.969Z,-23444.84
2023-02-19T04:27:54.816Z,-23444.38
2023-02-19T04:29:57.545Z,-23441.84
2023-02-19T04:32:00.244Z,-23446.75
2023-02-19T04:34:03.741Z,-23442.94
2023-02-19T04:36:10.863Z,-23446.59
2023-02-19T04:38:14.285Z,-23445.81
2023-02-19T04:40:16.952Z,-23446.75
2023-02-19T04:42:19.536Z,-23447.38
2023-02-19T04:44:22.594Z,-23444.69
2023-02-19T04:46:25.219Z,-23444.06
2023-02-19T04:48:27.817Z,-23449.44
2023-02-19T04:50:30.484Z,-23443.91
2023-02-19T04:52:35.428Z,-23446.91
2023-02-19T04:54:38.180Z,-23444.84
2023-02-19T04:56:40.866Z,-23448.97
2023-02-19T04:58:44.513Z,-23450.72
2023-02-19T05:00:53.247Z,-23449.44
2023-02-19T05:02:55.883Z,-23450.72
2023-02-19T05:04:58.499Z,-23453.56
2023-02-19T05:07:01.210Z,-23451.50
2023-02-19T05:09:05.233Z,-23452.94
2023-02-19T05:11:10.626Z,-23450.72
2023-02-19T05:13:13.482Z,-23446.28
2023-02-19T05:15:16.364Z,-23454.84
2023-02-19T05:17:19.126Z,-23453.91
2023-02-19T05:19:21.803Z,-23455.47
2023-02-19T05:21:24.454Z,-23453.91
2023-02-19T05:23:28.286Z,-23454.53
2023-02-19T05:25:32.250Z,-23450.72
2023-02-19T05:27:34.869Z,-23450.09
2023-02-19T05:29:37.533Z,-23452.47
2023-02-19T05:31:40.427Z,-23451.34
2023-02-19T05:33:44.150Z,-23448.50
2023-02-19T05:35:48.705Z,-23455.16
2023-02-19T05:37:51.326Z,-23456.75
2023-02-19T05:39:54.008Z,-23453.25
2023-02-19T05:41:57.957Z,-23452.31
2023-02-19T05:44:00.657Z,-23457.84
2023-02-19T05:46:03.326Z,-23455.47
2023-02-19T05:48:06.745Z,-23451.66
2023-02-19T05:50:09.502Z,-23451.03
2023-02-19T05:52:12.142Z,-23448.66
2023-02-19T05:54:14.803Z,-23444.06
2023-02-19T05:56:34.094Z,-23451.66
2023-02-19T05:58:38.079Z,-23451.19
2023-02-19T06:00:40.771Z,-23450.88
2023-02-19T06:02:43.493Z,-23452.31
2023-02-19T06:04:46.125Z,-23453.09
2023-02-19T06:06:49.532Z,-23454.84
2023-02-19T06:08:52.704Z,-23457.06
2023-02-19T06:10:55.301Z,-23452.47
2023-02-19T06:12:57.912Z,-23447.06
2023-02-19T06:15:01.940Z,-23449.13
2023-02-19T06:17:04.548Z,-23448.50
2023-02-19T06:19:07.200Z,-23445.97
2023-02-19T06:21:12.244Z,-23442.31
2023-02-19T06:23:15.614Z,-23437.88
2023-02-19T06:25:18.443Z,-23430.41
2023-02-19T06:27:21.015Z,-23432.78
2023-02-19T06:29:23.858Z,-23433.91
2023-02-19T06:31:27.919Z,-23436.13
2023-02-19T06:33:30.663Z,-23434.53
2023-02-19T06:35:33.314Z,-23434.22
2023-02-19T06:37:35.883Z,-23436.59
2023-02-19T06:39:38.727Z,-23435.47
2023-02-19T06:41:41.322Z,-23428.97
2023-02-19T06:43:43.932Z,-23432.31
2023-02-19T06:45:46.768Z,-23432.00
2023-02-19T06:47:50.675Z,-23434.22
2023-02-19T06:49:53.292Z,-23433.59
2023-02-19T06:51:55.959Z,-23435.47
2023-02-19T06:53:58.618Z,-23430.41
2023-02-19T06:56:03.385Z,-23434.53
2023-02-19T06:58:05.953Z,-23434.22
2023-02-19T07:00:10.223Z,-23437.88
2023-02-19T07:02:13.397Z,-23435.47
2023-02-19T07:04:17.475Z,-23439.94
2023-02-19T07:06:20.491Z,-23441.53
2023-02-19T07:08:23.158Z,-23443.25
2023-02-19T07:10:25.769Z,-23445.97
2023-02-19T07:12:28.354Z,-23445.97
2023-02-19T07:14:32.320Z,-23445.16
2023-02-19T07:16:35.776Z,-23440.25
2023-02-19T07:18:39.370Z,-23442.16
2023-02-19T07:20:43.289Z,-23447.38
2023-02-19T07:22:45.854Z,-23438.66
2023-02-19T07:24:48.504Z,-23440.56
2023-02-19T07:26:51.255Z,-23438.66
2023-02-19T07:28:54.275Z,-23438.81
2023-02-19T07:31:01.746Z,-23436.75
2023-02-19T07:33:04.540Z,-23441.34
2023-02-19T07:35:08.120Z,-23439.78
2023-02-19T07:37:12.138Z,-23434.22
2023-02-19T07:39:15.611Z,-23438.66
2023-02-19T07:41:18.186Z,-23437.88
2023-02-19T07:43:21.251Z,-23439.59
2023-02-19T07:45:23.957Z,-23438.34
2023-02-19T07:47:26.702Z,-23442.00
2023-02-19T07:49:29.444Z,-23441.53
2023-02-19T07:51:32.155Z,-23442.31
2023-02-19T07:53:36.553Z,-23444.69
2023-02-19T07:55:39.159Z,-23448.03
2023-02-19T07:57:41.835Z,-23448.19
2023-02-19T07:59:44.537Z,-23449.44
2023-02-19T08:02:04.642Z,-23454.69
2023-02-19T08:04:07.395Z,-23456.13
2023-02-19T08:06:12.013Z,-23453.25
2023-02-19T08:08:15.837Z,-23449.44
2023-02-19T08:10:37.549Z,-23454.53
2023-02-19T08:12:57.925Z,-23454.22
2023-02-19T08:15:00.601Z,-23454.84
2023-02-19T08:17:03.312Z,-23455.78
2023-02-19T08:19:06.154Z,-23457.06
2023-02-19T08:21:09.114Z,-23461.50
2023-02-19T08:23:12.947Z,-23458.03
2023-02-19T08:25:15.628Z,-23461.50
2023-02-19T08:27:19.541Z,-23460.41
2023-02-19T08:29:22.205Z,-23460.56
2023-02-19T08:31:25.033Z,-23462.47
2023-02-19T08:33:27.714Z,-23454.53
2023-02-19T08:35:30.590Z,-23453.91
2023-02-19T08:37:33.231Z,-23449.94
2023-02-19T08:39:35.783Z,-23445.97
2023-02-19T08:41:38.462Z,-23455.00
2023-02-19T08:43:43.525Z,-23457.22
2023-02-19T08:45:47.319Z,-23450.41
2023-02-19T08:47:49.952Z,-23452.63
2023-02-19T08:49:52.592Z,-23454.22
2023-02-19T08:51:55.257Z,-23451.84
2023-02-19T08:53:57.955Z,-23455.47
2023-02-19T08:56:00.569Z,-23451.19
2023-02-19T08:58:03.146Z,-23448.81
2023-02-19T09:00:09.037Z,-23452.47
2023-02-19T09:02:12.720Z,-23449.78
2023-02-19T09:04:15.447Z,-23444.22
2023-02-19T09:06:19.867Z,-23448.81
2023-02-19T09:08:22.530Z,-23450.09
2023-02-19T09:10:25.179Z,-23452.16
2023-02-19T09:12:27.819Z,-23448.34
2023-02-19T09:14:32.778Z,-23447.88
2023-02-19T09:16:37.458Z,-23453.41
2023-02-19T09:18:40.203Z,-23455.16
2023-02-19T09:20:42.895Z,-23453.56
2023-02-19T09:22:45.511Z,-23454.84
2023-02-19T09:24:48.579Z,-23452.63
2023-02-19T09:26:51.714Z,-23454.84
2023-02-19T09:28:54.338Z,-23455.63
2023-02-19T09:30:57.032Z,-23455.00
2023-02-19T09:33:01.004Z,-23462.94
2023-02-19T09:35:03.667Z,-23465.00
2023-02-19T09:37:06.682Z,-23461.66
2023-02-19T09:39:12.558Z,-23459.44
2023-02-19T09:41:23.418Z,-23464.53
2023-02-19T09:43:29.729Z,-23462.78
2023-02-19T09:45:32.542Z,-23464.53
2023-02-19T09:47:35.926Z,-23458.97
2023-02-19T09:49:43.542Z,-23469.28
2023-02-19T09:51:50.117Z,-23471.34
2023-02-19T09:53:54.323Z,-23464.03
2023-02-19T09:55:57.774Z,-23471.03
2023-02-19T09:58:03.168Z,-23471.97
2023-02-19T10:00:14.129Z,-23465.94
2023-02-19T10:02:18.977Z,-23469.75
2023-02-19T10:04:21.640Z,-23469.44
2023-02-19T10:06:29.757Z,-23468.97
2023-02-19T10:08:34.584Z,-23476.09
2023-02-19T10:10:38.356Z,-23477.03
2023-02-19T10:12:44.144Z,-23485.91
2023-02-19T10:14:50.277Z,-23482.44
2023-02-19T10:16:54.024Z,-23473.88
2023-02-19T10:18:57.477Z,-23479.91
2023-02-19T10:21:00.086Z,-23483.38
2023-02-19T10:23:06.546Z,-23481.16
2023-02-19T10:25:14.894Z,-23488.16
2023-02-19T10:27:17.590Z,-23480.22
2023-02-19T10:29:21.592Z,-23485.91
2023-02-19T10:31:26.432Z,-23482.75
2023-02-19T10:33:29.298Z,-23484.03
2023-02-19T10:35:37.005Z,-23472.59
2023-02-19T10:37:44.993Z,-23471.03
2023-02-19T10:39:51.514Z,-23472.28
2023-02-19T10:41:54.940Z,-23491.00
2023-02-19T10:44:04.204Z,-23486.72
2023-02-19T10:46:09.081Z,-23484.97
2023-02-19T10:48:25.617Z,-23491.47
2023-02-19T10:50:32.579Z,-23480.53
2023-02-19T10:52:36.652Z,-23481.47
2023-02-19T10:54:40.961Z,-23482.91
2023-02-19T10:56:45.243Z,-23496.38
2023-02-19T10:58:47.950Z,-23495.13
2023-02-19T11:01:09.411Z,-23517.94
2023-02-19T11:03:21.149Z,-23504.63
2023-02-19T11:05:24.238Z,-23498.75
2023-02-19T11:07:26.913Z,-23501.63
2023-02-19T11:09:35.816Z,-23491.78
2023-02-19T11:11:41.017Z,-23508.44
2023-02-19T11:13:45.606Z,-23517.94
2023-02-19T11:15:53.214Z,-23505.91
2023-02-19T11:17:58.493Z,-23494.66
2023-02-19T11:20:06.057Z,-23492.25
2023-02-19T11:22:28.817Z,-23489.91
2023-02-19T11:24:35.105Z,-23488.78
2023-02-19T11:26:38.201Z,-23491.16
2023-02-19T11:28:41.464Z,-23491.00
2023-02-19T11:30:47.126Z,-23498.28
2023-02-19T11:32:49.802Z,-23492.25
2023-02-19T11:34:52.896Z,-23495.59
2023-02-19T11:37:10.145Z,-23497.97
2023-02-19T11:39:22.898Z,-23507.00
2023-02-19T11:41:39.920Z,-23498.59
2023-02-19T11:44:01.056Z,-23492.59
2023-02-19T11:46:10.506Z,-23503.50
2023-02-19T11:48:42.008Z,-23501.94
2023-02-19T11:50:58.470Z,-23499.25
2023-02-19T11:53:14.785Z,-23500.19
2023-02-19T11:55:23.091Z,-23496.88
2023-02-19T11:57:39.180Z,-23491.78
2023-02-19T11:59:49.382Z,-23494.16
2023-02-19T12:02:07.348Z,-23484.03
2023-02-19T12:04:42.346Z,-23490.84
2023-02-19T12:06:54.769Z,-23498.13
2023-02-19T12:09:21.000Z,-23504.00
2023-02-19T12:11:42.618Z,-23502.56
2023-02-19T12:14:07.074Z,-23485.44
2023-02-19T12:16:16.881Z,-23505.41
2023-02-19T12:18:43.697Z,-23499.56
2023-02-19T12:20:58.219Z,-23493.22
2023-02-19T12:23:21.918Z,-23502.88
2023-02-19T12:25:39.441Z,-23499.56
2023-02-19T12:27:56.469Z,-23506.38
2023-02-19T12:30:26.222Z,-23498.59
2023-02-19T12:32:50.606Z,-23502.72
2023-02-19T12:35:32.242Z,-23501.13
2023-02-19T12:37:45.629Z,-23497.50
2023-02-19T12:40:04.654Z,-23504.00
2023-02-19T12:42:14.006Z,-23497.03
2023-02-19T12:44:21.738Z,-23505.25
2023-02-19T12:46:30.385Z,-23501.63
2023-02-19T12:48:38.100Z,-23499.88
2023-02-19T12:50:41.632Z,-23501.63
2023-02-19T12:52:50.826Z,-23504.63
2023-02-19T12:54:55.964Z,-23511.91
2023-02-19T12:57:04.847Z,-23513.66
2023-02-19T12:59:13.522Z,-23520.31
2023-02-19T13:01:21.920Z,-23509.06
2023-02-19T13:03:31.621Z,-23504.78
2023-02-19T13:05:44.524Z,-23524.25
2023-02-19T13:07:59.716Z,-23527.13
2023-02-19T13:10:15.387Z,-23529.16
2023-02-19T13:12:22.502Z,-23520.78
2023-02-19T13:14:29.586Z,-23518.41
2023-02-19T13:16:35.059Z,-23514.44
2023-02-19T13:18:43.071Z,-23504.31
2023-02-19T13:20:48.757Z,-23502.88
2023-02-19T13:23:18.607Z,-23506.22
2023-02-19T13:25:23.373Z,-23498.94
2023-02-19T13:27:48.609Z,-23502.41
2023-02-19T13:30:04.123Z,-23501.63
2023-02-19T13:32:37.666Z,-23506.06
2023-02-19T13:34:54.693Z,-23510.31
2023-02-19T13:36:57.861Z,-23498.44
2023-02-19T13:39:05.520Z,-23511.13
2023-02-19T13:41:18.854Z,-23497.81
2023-02-19T13:43:27.027Z,-23501.47
2023-02-19T13:45:35.580Z,-23490.69
2023-02-19T13:47:50.694Z,-23492.75
2023-02-19T13:49:53.429Z,-23489.56
2023-02-19T13:51:57.479Z,-23496.22
2023-02-19T13:54:02.697Z,-23498.94
2023-02-19T13:56:39.856Z,-23493.84
2023-02-19T13:59:01.398Z,-23490.69
2023-02-19T14:01:05.621Z,-23487.34
2023-02-19T14:03:28.808Z,-23488.78
2023-02-19T14:05:58.789Z,-23491.00
2023-02-19T14:08:01.593Z,-23496.53
2023-02-19T14:10:05.925Z,-23498.13
2023-02-19T14:12:21.345Z,-23494.97
2023-02-19T14:14:29.819Z,-23492.09
2023-02-19T14:16:49.468Z,-23499.06
2023-02-19T14:18:52.749Z,-23491.00
2023-02-19T14:21:08.719Z,-23495.75
2023-02-19T14:23:17.204Z,-23499.25
2023-02-19T14:25:29.071Z,-23496.38
2023-02-19T14:27:33.156Z,-23490.03
2023-02-19T14:29:35.972Z,-23490.53
2023-02-19T14:31:39.375Z,-23494.50
2023-02-19T14:33:47.347Z,-23494.50
2023-02-19T14:35:54.969Z,-23498.28
2023-02-19T14:37:59.278Z,-23496.38
2023-02-19T14:40:02.285Z,-23497.97
2023-02-19T14:42:09.637Z,-23489.72
2023-02-19T14:44:19.130Z,-23486.09
2023-02-19T14:46:30.084Z,-23484.03
2023-02-19T14:48:37.656Z,-23492.75
2023-02-19T14:50:41.584Z,-23481.81
2023-02-19T14:52:47.220Z,-23486.88
2023-02-19T14:54:55.173Z,-23491.00
2023-02-19T14:56:59.158Z,-23489.56
2023-02-19T14:59:25.904Z,-23494.50
2023-02-19T15:01:29.480Z,-23491.31
2023-02-19T15:03:35.113Z,-23483.72
2023-02-19T15:05:38.357Z,-23483.53
2023-02-19T15:07:43.065Z,-23482.28
2023-02-19T15:09:48.734Z,-23488.31
2023-02-19T15:11:51.391Z,-23485.44
2023-02-19T15:13:58.384Z,-23484.97
2023-02-19T15:16:02.531Z,-23477.38
2023-02-19T15:18:06.119Z,-23487.19
2023-02-19T15:20:12.907Z,-23482.91
2023-02-19T15:22:19.939Z,-23481.47
2023-02-19T15:24:22.785Z,-23483.06
2023-02-19T15:26:31.045Z,-23475.94
2023-02-19T15:28:34.660Z,-23476.09
2023-02-19T15:30:37.489Z,-23484.66
2023-02-19T15:32:41.576Z,-23486.56
2023-02-19T15:34:54.596Z,-23482.28
2023-02-19T15:36:59.537Z,-23473.88
2023-02-19T15:39:03.526Z,-23481.16
2023-02-19T15:41:06.414Z,-23480.69
2023-02-19T15:43:21.590Z,-23486.25
2023-02-19T15:45:27.724Z,-23475.47
2023-02-19T15:47:38.227Z,-23479.59
2023-02-19T15:49:50.396Z,-23473.56
2023-02-19T15:51:56.950Z,-23478.31
2023-02-19T15:54:08.420Z,-23478.63
2023-02-19T15:56:16.874Z,-23477.03
2023-02-19T15:58:27.801Z,-23474.19
2023-02-19T16:00:38.301Z,-23474.19
2023-02-19T16:02:41.603Z,-23473.41
2023-02-19T16:04:46.578Z,-23477.69
2023-02-19T16:06:57.772Z,-23474.03
2023-02-19T16:09:02.793Z,-23477.03
2023-02-19T16:11:26.791Z,-23477.38
2023-02-19T16:13:31.592Z,-23470.38
2023-02-19T16:15:34.461Z,-23472.28
2023-02-19T16:17:37.331Z,-23467.22
2023-02-19T16:19:47.605Z,-23466.91
2023-02-19T16:21:50.705Z,-23465.94
2023-02-19T16:23:59.233Z,-23468.50
2023-02-19T16:26:03.546Z,-23466.09
2023-02-19T16:28:14.082Z,-23464.53
2023-02-19T16:30:28.394Z,-23463.88
2023-02-19T16:32:31.398Z,-23465.00
2023-02-19T16:34:40.966Z,-23468.50
2023-02-19T16:36:46.225Z,-23468.16
2023-02-19T16:39:15.396Z,-23461.19
2023-02-19T16:41:17.982Z,-23462.47
2023-02-19T16:43:38.703Z,-23459.28
2023-02-19T16:45:42.292Z,-23456.91
2023-02-19T16:47:48.290Z,-23460.88
2023-02-19T16:49:51.267Z,-23452.78
2023-02-19T16:51:55.340Z,-23458.50
2023-02-19T16:53:58.032Z,-23456.28
2023-02-19T16:56:00.803Z,-23452.63
2023-02-19T16:58:03.586Z,-23448.66
2023-02-19T17:00:06.916Z,-23452.63
2023-02-19T17:02:18.508Z,-23449.28
2023-02-19T17:04:21.450Z,-23448.97
2023-02-19T17:06:24.314Z,-23450.09
2023-02-19T17:08:33.796Z,-23445.31
2023-02-19T17:10:36.648Z,-23448.66
2023-02-19T17:12:39.482Z,-23445.31
2023-02-19T17:14:42.273Z,-23446.28
2023-02-19T17:16:45.232Z,-23446.28
2023-02-19T17:18:48.041Z,-23442.78
2023-02-19T17:20:54.050Z,-23440.25
2023-02-19T17:22:56.973Z,-23440.88
2023-02-19T17:25:00.980Z,-23441.84
2023-02-19T17:27:03.821Z,-23441.19
2023-02-19T17:29:08.509Z,-23442.31
2023-02-19T17:31:12.254Z,-23437.06
2023-02-19T17:33:15.087Z,-23437.72
2023-02-19T17:35:17.816Z,-23440.88
2023-02-19T17:37:20.551Z,-23439.94
2023-02-19T17:39:24.022Z,-23442.31
2023-02-19T17:41:28.399Z,-23440.72
2023-02-19T17:43:31.057Z,-23443.41
2023-02-19T17:45:34.246Z,-23449.13
2023-02-19T17:47:36.901Z,-23441.69
2023-02-19T17:49:39.629Z,-23440.72
2023-02-19T17:51:42.279Z,-23445.97
2023-02-19T17:53:46.567Z,-23446.59
2023-02-19T17:55:49.292Z,-23443.09
2023-02-19T17:57:53.812Z,-23439.59
2023-02-19T17:59:56.472Z,-23445.00
2023-02-19T18:01:59.095Z,-23443.41
2023-02-19T18:04:01.873Z,-23442.47
2023-02-19T18:06:05.031Z,-23440.72
2023-02-19T18:08:07.696Z,-23442.00
2023-02-19T18:10:11.190Z,-23440.25
2023-02-19T18:12:13.850Z,-23436.91
2023-02-19T18:14:17.756Z,-23443.75
2023-02-19T18:16:20.803Z,-23445.66
2023-02-19T18:18:24.207Z,-23441.84
2023-02-19T18:20:28.821Z,-23442.78
2023-02-19T18:22:32.100Z,-23442.16
2023-02-19T18:24:34.757Z,-23445.81
2023-02-19T18:26:37.431Z,-23445.31
2023-02-19T18:28:40.552Z,-23440.72
2023-02-19T18:30:44.675Z,-23446.28
2023-02-19T18:32:48.641Z,-23441.53
2023-02-19T18:34:51.803Z,-23444.22
2023-02-19T18:36:54.491Z,-23438.34
2023-02-19T18:38:57.164Z,-23437.41
2023-02-19T18:40:59.800Z,-23438.50
2023-02-19T18:43:02.698Z,-23437.41
2023-02-19T18:45:05.831Z,-23437.72
2023-02-19T18:47:11.440Z,-23440.25
2023-02-19T18:49:14.600Z,-23438.97
2023-02-19T18:51:17.329Z,-23438.97
2023-02-19T18:53:20.004Z,-23438.66
2023-02-19T18:55:22.709Z,-23436.75
2023-02-19T18:57:26.447Z,-23436.44
2023-02-19T18:59:29.023Z,-23438.81
2023-02-19T19:01:31.724Z,-23440.09
2023-02-19T19:03:36.109Z,-23438.97
2023-02-19T19:05:38.735Z,-23436.13
2023-02-19T19:07:41.411Z,-23441.19
2023-02-19T19:09:44.127Z,-23438.34
2023-02-19T19:11:47.459Z,-23441.53
2023-02-19T19:13:50.092Z,-23443.59
2023-02-19T19:15:52.838Z,-23434.53
2023-02-19T19:17:55.532Z,-23438.34
2023-02-19T19:19:59.518Z,-23439.13
2023-02-19T19:22:02.154Z,-23435.81
2023-02-19T19:24:05.362Z,-23437.41
2023-02-19T19:26:08.127Z,-23434.06
2023-02-19T19:28:10.815Z,-23439.28
2023-02-19T19:30:14.385Z,-23436.44
2023-02-19T19:32:17.101Z,-23438.34
2023-02-19T19:34:20.046Z,-23438.34
2023-02-19T19:36:24.124Z,-23442.63
2023-02-19T19:38:26.801Z,-23440.56
2023-02-19T19:40:29.498Z,-23440.41
2023-02-19T19:42:32.130Z,-23443.75
2023-02-19T19:44:34.768Z,-23440.56
2023-02-19T19:46:44.443Z,-23442.78
2023-02-19T19:48:47.692Z,-23438.97
2023-02-19T19:50:50.342Z,-23440.88
2023-02-19T19:52:54.419Z,-23442.16
2023-02-19T19:54:57.041Z,-23445.66
2023-02-19T19:56:59.700Z,-23441.03
2023-02-19T19:59:02.361Z,-23438.50
2023-02-19T20:01:06.038Z,-23441.34
2023-02-19T20:03:09.525Z,-23444.53
2023-02-19T20:05:12.932Z,-23436.13
2023-02-19T20:07:15.690Z,-23438.81
2023-02-19T20:09:20.833Z,-23438.03
2023-02-19T20:11:23.544Z,-23435.34
2023-02-19T20:13:28.701Z,-23441.03
2023-02-19T20:15:31.489Z,-23434.22
2023-02-19T20:17:34.129Z,-23435.47
2023-02-19T20:19:36.710Z,-23436.13
2023-02-19T20:21:39.357Z,-23435.34
2023-02-19T20:23:41.981Z,-23435.66
2023-02-19T20:25:46.017Z,-23440.25
2023-02-19T20:27:48.931Z,-23436.28
2023-02-19T20:29:51.583Z,-23434.38
2023-02-19T20:31:54.446Z,-23436.13
2023-02-19T20:33:57.104Z,-23437.41
2023-02-19T20:35:59.722Z,-23432.94
2023-02-19T20:38:02.454Z,-23435.00
2023-02-19T20:40:07.170Z,-23435.81
2023-02-19T20:42:11.210Z,-23436.28
2023-02-19T20:44:14.092Z,-23431.03
2023-02-19T20:46:16.748Z,-23427.53
2023-02-19T20:48:19.749Z,-23426.59
2023-02-19T20:50:23.258Z,-23423.56
2023-02-19T20:52:25.953Z,-23423.56
2023-02-19T20:54:30.313Z,-23422.47
2023-02-19T20:56:32.985Z,-23424.69
2023-02-19T20:58:36.958Z,-23424.53
2023-02-19T21:00:39.586Z,-23422.47
2023-02-19T21:02:42.575Z,-23425.31
2023-02-19T21:04:45.449Z,-23429.13
2023-02-19T21:06:48.107Z,-23424.84
2023-02-19T21:08:50.778Z,-23426.13
2023-02-19T21:10:54.955Z,-23428.19
2023-02-19T21:12:57.695Z,-23429.13
2023-02-19T21:15:01.622Z,-23431.53
2023-02-19T21:17:04.428Z,-23427.72
2023-02-19T21:19:07.491Z,-23424.06
2023-02-19T21:21:10.214Z,-23428.50
2023-02-19T21:23:13.924Z,-23428.66
2023-02-19T21:25:16.845Z,-23422.94
2023-02-19T21:27:19.875Z,-23426.44
2023-02-19T21:29:23.342Z,-23423.41
2023-02-19T21:31:37.241Z,-23424.69
2023-02-19T21:33:40.012Z,-23424.06
2023-02-19T21:35:42.818Z,-23425.00
2023-02-19T21:37:45.549Z,-23424.22
2023-02-19T21:39:48.161Z,-23427.38
2023-02-19T21:41:51.367Z,-23428.19
2023-02-19T21:43:54.783Z,-23423.88
2023-02-19T21:45:57.984Z,-23428.50
2023-02-19T21:48:01.999Z,-23426.59
2023-02-19T21:50:05.217Z,-23422.00
2023-02-19T21:52:07.839Z,-23422.47
2023-02-19T21:54:15.827Z,-23423.09
2023-02-19T21:56:23.260Z,-23425.97
2023-02-19T21:58:25.980Z,-23427.22
2023-02-19T22:00:28.604Z,-23425.31
2023-02-19T22:02:31.254Z,-23423.72
2023-02-19T22:04:35.313Z,-23428.50
2023-02-19T22:06:39.364Z,-23421.19
2023-02-19T22:08:41.997Z,-23424.22
2023-02-19T22:10:44.907Z,-23420.56
2023-02-19T22:12:47.710Z,-23418.34
2023-02-19T22:14:51.644Z,-23420.56
2023-02-19T22:16:54.449Z,-23422.16
2023-02-19T22:18:59.037Z,-23423.41
2023-02-19T22:21:04.879Z,-23419.59
2023-02-19T22:23:07.694Z,-23420.09
2023-02-19T22:25:10.336Z,-23418.34
2023-02-19T22:27:13.034Z,-23419.94
2023-02-19T22:29:16.501Z,-23419.44
2023-02-19T22:31:21.064Z,-23422.78
2023-02-19T22:33:24.012Z,-23422.16
2023-02-19T22:35:27.004Z,-23423.41
2023-02-19T22:37:31.000Z,-23432.00
2023-02-19T22:39:33.612Z,-23418.97
2023-02-19T22:41:36.314Z,-23418.03
2023-02-19T22:43:39.149Z,-23420.88
2023-02-19T22:45:41.735Z,-23425.00
2023-02-19T22:47:46.943Z,-23418.03
2023-02-19T22:49:49.656Z,-23418.66
2023-02-19T22:51:55.982Z,-23416.75
2023-02-19T22:54:01.454Z,-23416.28
2023-02-19T22:56:04.198Z,-23421.50
2023-02-19T22:58:06.876Z,-23421.50
2023-02-19T23:00:10.654Z,-23417.84
2023-02-19T23:02:13.299Z,-23420.88
2023-02-19T23:04:16.309Z,-23424.06
2023-02-19T23:06:23.354Z,-23420.56
2023-02-19T23:08:25.962Z,-23416.09
2023-02-19T23:10:29.965Z,-23420.56
2023-02-19T23:12:32.601Z,-23422.31
2023-02-19T23:14:35.858Z,-23415.00
2023-02-19T23:16:38.518Z,-23417.69
2023-02-19T23:18:41.192Z,-23420.56
2023-02-19T23:20:44.008Z,-23419.59
2023-02-19T23:22:46.672Z,-23418.19
2023-02-19T23:24:49.484Z,-23415.97
2023-02-19T23:26:54.172Z,-23416.09
2023-02-19T23:28:56.827Z,-23413.56
2023-02-19T23:30:59.656Z,-23411.19
2023-02-19T23:33:02.354Z,-23413.56
2023-02-19T23:35:05.292Z,-23412.47
2023-02-19T23:37:07.920Z,-23410.41
2023-02-19T23:39:11.278Z,-23413.56
2023-02-19T23:41:17.131Z,-23410.72
2023-02-19T23:43:21.611Z,-23411.50
2023-02-19T23:45:24.336Z,-23411.81
2023-02-19T23:47:28.336Z,-23408.81
2023-02-19T23:49:32.408Z,-23408.97
2023-02-19T23:51:35.421Z,-23407.22
2023-02-19T23:53:38.026Z,-23409.75
2023-02-19T23:55:40.714Z,-23406.75
2023-02-19T23:57:43.629Z,-23407.84
2023-02-19T23:59:49.054Z,-23404.34
